Time;durP1;ratioP1;P1;durP2;ratioP2;P2;SDS_P1;SDS_P2;PMS_P1;PMS_P2;Temp;Humidity;BMP_temperature;BMP_pressure;BME280_temperature;BME280_humidity;BME280_pressure;Samples;Min_cycle;Max_cycle;Signal;HPM_P1;HPM_P2
2024/01/30 00:00:04;;;;;;;6.22;2.83;;;0.20;99.90;;;;;;4949360;29;20035;-53
2024/01/30 00:02:32;;;;;;;6.90;2.03;;;0.00;99.90;;;;;;4955008;29;20061;-55
2024/01/30 00:04:59;;;;;;;5.72;1.83;;;-0.10;99.90;;;;;;4953927;28;20428;-55
2024/01/30 00:07:25;;;;;;;9.57;2.08;;;-0.10;99.90;;;;;;4954661;29;20496;-56
2024/01/30 00:09:52;;;;;;;5.80;2.85;;;-0.10;99.90;;;;;;4948511;29;20552;-56
2024/01/30 00:12:19;;;;;;;15.13;3.95;;;0.00;99.90;;;;;;4954750;29;20487;-55
2024/01/30 00:14:46;;;;;;;7.97;3.38;;;0.10;99.90;;;;;;4954155;28;20039;-56
2024/01/30 00:17:13;;;;;;;7.10;3.35;;;0.20;99.90;;;;;;4952857;29;20117;-53
2024/01/30 00:19:40;;;;;;;;;;;0.30;99.90;;;;;;4955078;29;20051;-58
2024/01/30 00:22:07;;;;;;;6.53;2.75;;;0.30;99.90;;;;;;4954725;29;20292;-57
2024/01/30 00:24:34;;;;;;;7.38;2.90;;;0.20;99.90;;;;;;4953941;28;20062;-56
2024/01/30 00:27:01;;;;;;;7.30;3.15;;;0.00;99.90;;;;;;4947155;29;20485;-53
2024/01/30 00:29:33;;;;;;;6.55;1.88;;;0.10;99.90;;;;;;4954335;29;20454;-57
2024/01/30 00:32:00;;;;;;;2.88;1.42;;;-0.10;99.90;;;;;;4954636;29;20047;-54
2024/01/30 00:34:27;;;;;;;3.58;1.80;;;-0.10;99.90;;;;;;4953845;28;20122;-55
2024/01/30 00:36:53;;;;;;;5.43;1.42;;;-0.10;99.90;;;;;;4948569;29;20083;-57
2024/01/30 00:39:21;;;;;;;5.88;1.70;;;-0.10;99.90;;;;;;4953825;29;20043;-57
2024/01/30 00:41:47;;;;;;;3.70;1.10;;;-0.10;99.90;;;;;;4954177;29;20489;-54
2024/01/30 00:44:14;;;;;;;2.60;1.20;;;-0.20;99.90;;;;;;4953451;28;20047;-57
2024/01/30 00:46:41;;;;;;;2.00;1.20;;;-0.20;99.90;;;;;;4945916;29;20054;-55
2024/01/30 00:49:07;;;;;;;4.82;1.85;;;-0.20;99.90;;;;;;4954272;29;20058;-55
2024/01/30 00:51:34;;;;;;;4.68;1.90;;;-0.20;99.90;;;;;;4953951;29;20043;-57
2024/01/30 00:54:02;;;;;;;8.48;3.20;;;-0.20;99.90;;;;;;4950263;28;20138;-58
2024/01/30 00:56:29;;;;;;;9.48;4.05;;;-0.20;99.90;;;;;;4953562;29;20040;-54
2024/01/30 00:58:56;;;;;;;12.50;3.28;;;-0.20;99.90;;;;;;4954124;29;20039;-57
2024/01/30 01:01:23;;;;;;;4.55;2.25;;;-0.30;99.90;;;;;;4951111;29;20118;-56
2024/01/30 01:03:50;;;;;;;7.10;2.97;;;-0.20;99.90;;;;;;4953703;28;20102;-55
2024/01/30 01:06:17;;;;;;;10.68;3.83;;;-0.30;99.90;;;;;;4953569;29;20039;-55
2024/01/30 01:08:44;;;;;;;6.60;2.50;;;-0.30;99.90;;;;;;4952188;29;20559;-55
2024/01/30 01:11:11;;;;;;;8.57;2.42;;;-0.30;99.90;;;;;;4947872;29;20074;-57
2024/01/30 01:13:37;;;;;;;6.63;2.10;;;-0.30;99.90;;;;;;4952692;28;20050;-56
2024/01/30 01:16:04;;;;;;;4.60;1.95;;;-0.30;99.90;;;;;;4936019;29;20047;-55
2024/01/30 01:18:31;;;;;;;4.57;2.58;;;-0.30;99.90;;;;;;4945998;29;20511;-58
2024/01/30 01:20:59;;;;;;;4.90;2.70;;;-0.20;99.90;;;;;;4953680;29;20071;-55
2024/01/30 01:23:26;;;;;;;5.43;2.45;;;-0.30;99.90;;;;;;4953594;28;20058;-54
2024/01/30 01:25:52;;;;;;;5.70;2.55;;;-0.30;99.90;;;;;;4953354;29;20047;-57
2024/01/30 01:28:19;;;;;;;11.00;2.53;;;-0.30;99.90;;;;;;4935801;29;20493;-55
2024/01/30 01:30:46;;;;;;;7.35;2.38;;;-0.30;99.90;;;;;;4953367;29;20476;-55
2024/01/30 01:33:14;;;;;;;5.47;2.47;;;-0.30;99.90;;;;;;4936155;29;20066;-58
2024/01/30 01:35:41;;;;;;;6.40;2.92;;;-0.30;99.90;;;;;;4949881;29;20377;-54
2024/01/30 01:38:08;;;;;;;5.22;1.98;;;-0.40;99.90;;;;;;4953635;29;20104;-55
2024/01/30 01:40:35;;;;;;;5.15;2.53;;;-0.50;99.90;;;;;;4936038;29;20057;-54
2024/01/30 01:43:05;;;;;;;5.70;2.60;;;-0.50;99.90;;;;;;4952387;28;20047;-54
2024/01/30 01:45:32;;;;;;;11.18;2.70;;;-0.50;99.90;;;;;;4949884;29;20058;-54
2024/01/30 01:47:58;;;;;;;6.05;2.65;;;-0.40;99.90;;;;;;4953439;29;20050;-56
2024/01/30 01:50:26;;;;;;;10.27;2.88;;;-0.40;99.90;;;;;;4953430;29;20047;-54
2024/01/30 01:52:54;;;;;;;6.38;2.67;;;-0.40;99.90;;;;;;4952894;28;20624;-54
2024/01/30 01:55:23;;;;;;;6.00;2.60;;;-0.40;99.90;;;;;;4953123;29;20500;-53
2024/01/30 01:57:51;;;;;;;3.67;2.10;;;-0.40;99.90;;;;;;4953169;29;20054;-54
2024/01/30 02:00:19;;;;;;;3.53;1.50;;;-0.40;99.90;;;;;;4947066;29;20056;-54
2024/01/30 02:02:47;;;;;;;2.80;1.52;;;-0.40;99.90;;;;;;4951399;28;20039;-57
2024/01/30 02:05:15;;;;;;;3.15;1.38;;;-0.50;99.90;;;;;;4952883;28;20043;-55
2024/01/30 02:07:43;;;;;;;2.28;1.10;;;-0.50;99.90;;;;;;4953371;29;20043;-57
2024/01/30 02:10:10;;;;;;;3.28;1.10;;;-0.60;99.90;;;;;;4935405;29;20523;-55
2024/01/30 02:12:37;;;;;;;6.00;1.58;;;-0.60;99.90;;;;;;4952982;29;20389;-54
2024/01/30 02:15:05;;;;;;;2.63;1.48;;;-0.60;99.90;;;;;;4952582;28;20071;-58
2024/01/30 02:17:31;;;;;;;4.32;1.67;;;-0.60;99.90;;;;;;4947814;29;20107;-53
2024/01/30 02:19:59;;;;;;;5.03;2.08;;;-0.60;99.90;;;;;;4953102;29;20091;-57
2024/01/30 02:22:26;;;;;;;5.18;2.58;;;-0.60;99.90;;;;;;4953137;29;20546;-55
2024/01/30 02:24:53;;;;;;;11.25;3.40;;;-0.60;99.90;;;;;;4952095;28;20087;-57
2024/01/30 02:27:20;;;;;;;9.82;3.60;;;-0.60;99.90;;;;;;4952759;28;20047;-55
2024/01/30 02:29:47;;;;;;;5.97;2.13;;;-0.60;99.90;;;;;;4956378;29;20043;-58
2024/01/30 02:32:14;;;;;;;4.63;2.03;;;-0.60;99.90;;;;;;4956400;29;20050;-56
2024/01/30 02:34:40;;;;;;;4.00;1.60;;;-0.70;99.90;;;;;;4949685;28;20040;-58
2024/01/30 02:37:07;;;;;;;6.00;1.80;;;-0.80;99.90;;;;;;4956724;29;20435;-58
2024/01/30 02:39:34;;;;;;;3.22;1.60;;;-0.70;99.90;;;;;;4956647;29;20039;-54
2024/01/30 02:42:01;;;;;;;5.50;2.15;;;-0.80;99.90;;;;;;4948709;29;20039;-55
2024/01/30 02:44:28;;;;;;;4.25;2.25;;;-0.80;99.90;;;;;;4952954;28;20035;-56
2024/01/30 02:46:55;;;;;;;5.47;2.65;;;-0.80;99.90;;;;;;4939139;29;20357;-57
2024/01/30 02:49:22;;;;;;;5.25;1.92;;;-0.80;99.90;;;;;;4956464;29;20043;-54
2024/01/30 02:51:49;;;;;;;;;;;-0.80;99.90;;;;;;4956648;29;20460;-53
2024/01/30 02:54:16;;;;;;;3.03;1.55;;;-1.00;99.90;;;;;;4952896;28;20389;-56
2024/01/30 02:56:42;;;;;;;3.50;1.52;;;-0.90;99.90;;;;;;4956000;29;20377;-55
2024/01/30 02:59:09;;;;;;;5.43;1.60;;;-1.00;99.90;;;;;;4956240;29;20043;-56
2024/01/30 03:01:46;;;;;;;2.92;1.45;;;-1.00;99.90;;;;;;4948426;29;20063;-56
2024/01/30 03:04:13;;;;;;;4.07;2.60;;;-0.90;99.90;;;;;;4949191;28;20061;-53
2024/01/30 03:06:44;;;;;;;;;;;-0.90;99.90;;;;;;4956430;29;20279;-55
2024/01/30 03:09:11;;;;;;;5.20;1.42;;;-0.90;99.90;;;;;;4956117;29;19922;-55
2024/01/30 03:11:38;;;;;;;5.47;1.95;;;-0.80;99.90;;;;;;4948793;29;20063;-58
2024/01/30 03:14:05;;;;;;;2.67;1.70;;;-0.80;99.90;;;;;;4955634;28;20035;-58
2024/01/30 03:16:32;;;;;;;2.55;1.58;;;-0.80;99.90;;;;;;4955949;29;20096;-55
2024/01/30 03:18:58;;;;;;;3.45;1.73;;;-0.80;99.90;;;;;;4953633;29;20078;-54
2024/01/30 03:21:25;;;;;;;5.70;1.95;;;-0.90;99.90;;;;;;4955811;29;20042;-56
2024/01/30 03:23:53;;;;;;;3.75;1.50;;;-0.90;99.90;;;;;;4955465;28;20066;-54
2024/01/30 03:26:20;;;;;;;3.42;1.60;;;-0.90;99.90;;;;;;4954139;29;20086;-53
2024/01/30 03:28:46;;;;;;;5.35;1.67;;;-0.90;99.90;;;;;;4952933;29;20050;-58
2024/01/30 03:31:15;;;;;;;3.60;1.70;;;-0.80;99.90;;;;;;4955627;29;20051;-57
2024/01/30 03:33:42;;;;;;;4.25;1.50;;;-0.90;99.90;;;;;;4955420;28;20043;-58
2024/01/30 03:36:11;;;;;;;3.70;1.63;;;-0.90;99.90;;;;;;4952412;29;20043;-54
2024/01/30 03:38:37;;;;;;;3.88;1.73;;;-0.90;99.90;;;;;;4954265;28;20039;-56
2024/01/30 03:41:08;;;;;;;5.70;2.63;;;-0.90;99.90;;;;;;4955304;29;20061;-56
2024/01/30 03:43:34;;;;;;;3.35;1.83;;;-0.80;99.90;;;;;;4952157;28;20134;-57
2024/01/30 03:46:02;;;;;;;5.80;2.28;;;-0.80;99.90;;;;;;4954150;29;20432;-54
2024/01/30 03:48:29;;;;;;;4.63;2.05;;;-0.90;99.90;;;;;;4955324;29;20086;-56
2024/01/30 03:50:56;;;;;;;3.65;1.75;;;-0.90;99.90;;;;;;4955108;29;20047;-54
2024/01/30 03:53:23;;;;;;;7.10;2.60;;;-1.00;99.90;;;;;;4953398;29;20126;-55
2024/01/30 03:55:50;;;;;;;8.00;2.78;;;-1.10;99.90;;;;;;4954699;29;20035;-55
2024/01/30 03:58:16;;;;;;;5.82;2.28;;;-1.20;99.90;;;;;;4955266;29;20046;-55
2024/01/30 04:00:44;;;;;;;4.35;2.28;;;-1.20;99.90;;;;;;4955082;29;20043;-58
2024/01/30 04:03:11;;;;;;;5.00;1.95;;;-1.20;99.90;;;;;;4950972;28;20054;-54
2024/01/30 04:05:38;;;;;;;4.35;2.05;;;-1.20;99.90;;;;;;4954668;29;20468;-56
2024/01/30 04:08:05;;;;;;;2.78;1.33;;;-1.20;99.90;;;;;;4954861;29;20047;-56
2024/01/30 04:10:32;;;;;;;4.70;1.88;;;-1.30;99.90;;;;;;4950936;29;20571;-55
2024/01/30 04:12:59;;;;;;;3.35;1.65;;;-1.30;99.90;;;;;;4954630;28;20043;-57
2024/01/30 04:15:26;;;;;;;4.70;1.70;;;-1.20;99.90;;;;;;4954215;29;20047;-55
2024/01/30 04:17:53;;;;;;;;;;;-1.20;99.90;;;;;;4954961;29;20055;-53
2024/01/30 04:20:20;;;;;;;3.80;1.67;;;-1.20;99.90;;;;;;4949048;29;19923;-58
2024/01/30 04:22:47;;;;;;;4.15;1.65;;;-1.10;99.90;;;;;;4946457;29;20501;-55
2024/01/30 04:25:14;;;;;;;5.15;1.80;;;-1.10;99.90;;;;;;4944992;29;20485;-57
2024/01/30 04:27:41;;;;;;;4.15;1.92;;;-1.10;99.90;;;;;;4954403;29;20043;-56
2024/01/30 04:30:08;;;;;;;3.35;1.27;;;-1.10;99.90;;;;;;4953584;29;20058;-54
2024/01/30 04:32:36;;;;;;;3.35;1.38;;;-1.10;99.90;;;;;;4948989;29;20041;-56
2024/01/30 04:35:03;;;;;;;3.95;1.75;;;-1.10;99.90;;;;;;4951193;28;20044;-56
2024/01/30 04:37:35;;;;;;;2.65;1.48;;;-1.10;99.90;;;;;;4950255;29;20511;-56
2024/01/30 04:40:02;;;;;;;5.40;1.65;;;-1.10;99.90;;;;;;4949674;29;20043;-54
2024/01/30 04:42:29;;;;;;;4.60;1.73;;;-1.20;99.90;;;;;;4953867;29;20043;-54
2024/01/30 04:44:56;;;;;;;5.63;1.80;;;-1.20;99.90;;;;;;4952616;28;20050;-56
2024/01/30 04:47:23;;;;;;;3.92;1.67;;;-1.20;99.90;;;;;;4954155;29;20039;-58
2024/01/30 04:49:51;;;;;;;2.08;1.63;;;-1.10;99.90;;;;;;4951634;28;20116;-56
2024/01/30 04:52:18;;;;;;;3.97;1.90;;;-1.20;99.90;;;;;;4936993;29;20043;-54
2024/01/30 04:54:45;;;;;;;4.15;1.92;;;-1.20;99.90;;;;;;4953691;28;20066;-56
2024/01/30 04:57:12;;;;;;;3.50;1.60;;;-1.20;99.90;;;;;;4945981;29;20491;-54
2024/01/30 04:59:39;;;;;;;5.18;2.45;;;-1.20;99.90;;;;;;4953481;29;20396;-53
2024/01/30 05:02:06;;;;;;;4.47;1.95;;;-1.20;99.90;;;;;;4953444;29;20047;-53
2024/01/30 05:04:34;;;;;;;6.40;2.63;;;-1.20;99.90;;;;;;4953457;28;20039;-55
2024/01/30 05:07:01;;;;;;;4.65;2.38;;;-1.20;99.90;;;;;;4950220;29;20051;-55
2024/01/30 05:09:28;;;;;;;6.28;2.92;;;-1.20;99.90;;;;;;4953941;29;20043;-55
2024/01/30 05:11:55;;;;;;;6.18;2.65;;;-1.10;99.90;;;;;;4953147;29;20503;-53
2024/01/30 05:14:22;;;;;;;4.43;2.05;;;-1.20;99.90;;;;;;4935093;29;20536;-55
2024/01/30 05:16:48;;;;;;;4.15;1.92;;;-1.20;99.90;;;;;;4953812;29;20047;-54
2024/01/30 05:19:15;;;;;;;3.58;1.70;;;-1.20;99.90;;;;;;4953787;29;20045;-58
2024/01/30 05:21:42;;;;;;;2.40;1.30;;;-1.30;99.90;;;;;;4933122;29;20052;-55
2024/01/30 05:24:10;;;;;;;3.92;1.38;;;-1.30;99.90;;;;;;4934230;29;20047;-59
2024/01/30 05:26:37;;;;;;;6.57;1.88;;;-1.30;99.90;;;;;;4952735;29;20066;-57
2024/01/30 05:29:05;;;;;;;5.25;1.80;;;-1.30;99.90;;;;;;4935144;29;20272;-57
2024/01/30 05:31:32;;;;;;;6.95;1.60;;;-1.30;99.90;;;;;;4949167;29;20047;-55
2024/01/30 05:33:58;;;;;;;7.35;2.03;;;-1.30;99.90;;;;;;4953383;28;20500;-54
2024/01/30 05:36:26;;;;;;;8.10;2.17;;;-1.40;99.90;;;;;;4953249;29;20061;-57
2024/01/30 05:38:52;;;;;;;8.65;2.35;;;-1.30;99.90;;;;;;4953559;29;20043;-56
2024/01/30 05:41:21;;;;;;;5.53;2.10;;;-1.40;99.90;;;;;;4946892;29;20050;-56
2024/01/30 05:43:47;;;;;;;6.82;2.17;;;-1.30;99.90;;;;;;4953184;28;20126;-57
2024/01/30 05:46:14;;;;;;;5.57;2.50;;;-1.30;99.90;;;;;;4953059;29;20051;-53
2024/01/30 05:48:41;;;;;;;6.28;2.83;;;-1.20;99.90;;;;;;4952947;29;20374;-55
2024/01/30 05:51:08;;;;;;;8.38;3.22;;;-1.20;99.90;;;;;;4945333;29;20051;-54
2024/01/30 05:53:35;;;;;;;7.13;3.47;;;-1.30;99.90;;;;;;4953234;28;20047;-55
2024/01/30 05:56:03;;;;;;;14.02;4.90;;;-1.30;99.90;;;;;;4935191;29;20114;-53
2024/01/30 05:58:31;;;;;;;8.18;4.47;;;-1.40;99.90;;;;;;4949311;29;20488;-53
2024/01/30 06:00:58;;;;;;;8.15;4.78;;;-1.50;99.90;;;;;;4952997;28;20143;-54
2024/01/30 06:03:25;;;;;;;18.13;8.07;;;-1.50;99.90;;;;;;4955961;28;20408;-56
2024/01/30 06:05:52;;;;;;;15.77;6.32;;;-1.50;99.90;;;;;;4955749;29;20043;-54
2024/01/30 06:08:19;;;;;;;13.25;6.38;;;-1.50;99.90;;;;;;4955672;29;20043;-55
2024/01/30 06:10:45;;;;;;;18.75;6.18;;;-1.40;99.90;;;;;;4956885;29;20082;-58
2024/01/30 06:13:12;;;;;;;11.10;5.78;;;-1.40;99.90;;;;;;4956535;28;20062;-58
2024/01/30 06:15:39;;;;;;;12.02;5.95;;;-1.40;99.90;;;;;;4954782;29;20035;-56
2024/01/30 06:18:06;;;;;;;15.25;6.15;;;-1.40;99.90;;;;;;4954567;29;20400;-54
2024/01/30 06:20:33;;;;;;;26.33;8.05;;;-1.30;99.90;;;;;;4956872;29;20035;-53
2024/01/30 06:23:00;;;;;;;31.77;11.00;;;-1.20;99.90;;;;;;4956499;28;20044;-56
2024/01/30 06:25:27;;;;;;;29.70;10.13;;;-1.30;99.90;;;;;;4953412;29;20036;-56
2024/01/30 06:27:54;;;;;;;34.70;10.10;;;-1.30;99.90;;;;;;4956764;29;20111;-57
2024/01/30 06:30:21;;;;;;;22.38;8.10;;;-1.30;99.90;;;;;;4956682;29;20043;-56
2024/01/30 06:32:48;;;;;;;16.00;6.20;;;-1.40;99.90;;;;;;4936188;29;20039;-54
2024/01/30 06:35:17;;;;;;;20.90;7.30;;;-1.40;99.90;;;;;;4954888;29;20053;-57
2024/01/30 06:37:44;;;;;;;12.27;4.90;;;-1.50;99.90;;;;;;4956505;29;20499;-58
2024/01/30 06:40:11;;;;;;;15.95;5.40;;;-1.40;99.90;;;;;;4955489;29;20058;-56
2024/01/30 06:42:38;;;;;;;9.98;5.03;;;-1.40;99.90;;;;;;4947943;29;20381;-55
2024/01/30 06:45:05;;;;;;;12.60;4.75;;;-1.40;99.90;;;;;;4955589;28;20708;-56
2024/01/30 06:47:32;;;;;;;;;;;-1.40;99.90;;;;;;4956341;29;20070;-55
2024/01/30 06:49:59;;;;;;;9.98;3.97;;;-1.30;99.90;;;;;;4953954;29;19929;-53
2024/01/30 06:52:26;;;;;;;14.68;4.93;;;-1.30;99.90;;;;;;4955570;29;20421;-54
2024/01/30 06:54:54;;;;;;;12.23;4.95;;;-1.30;99.90;;;;;;4955275;28;20039;-57
2024/01/30 06:57:21;;;;;;;15.55;6.50;;;-1.40;99.90;;;;;;4955332;29;20126;-54
2024/01/30 06:59:48;;;;;;;16.08;6.70;;;-1.40;99.90;;;;;;4950387;29;20050;-54
2024/01/30 07:02:14;;;;;;;15.80;7.25;;;-1.40;99.90;;;;;;4955163;29;20057;-56
2024/01/30 07:04:41;;;;;;;12.82;5.78;;;-1.40;99.90;;;;;;4954538;28;20488;-55
2024/01/30 07:07:14;;;;;;;11.55;5.00;;;-1.40;99.90;;;;;;4949553;29;20054;-54
2024/01/30 07:09:42;;;;;;;10.60;5.45;;;-1.40;99.90;;;;;;4955056;29;20098;-57
2024/01/30 07:12:08;;;;;;;10.75;4.72;;;-1.40;99.90;;;;;;4955239;29;20053;-56
2024/01/30 07:14:35;;;;;;;11.45;5.35;;;-1.40;99.90;;;;;;4948646;28;20045;-54
2024/01/30 07:17:02;;;;;;;13.65;6.15;;;-1.40;99.90;;;;;;4955356;29;20134;-53
2024/01/30 07:19:29;;;;;;;16.17;7.07;;;-1.30;99.90;;;;;;4955124;29;20134;-53
2024/01/30 07:21:56;;;;;;;20.23;8.35;;;-1.30;99.90;;;;;;4953723;29;20051;-54
2024/01/30 07:24:23;;;;;;;20.45;8.95;;;-1.30;99.90;;;;;;4953693;28;20043;-53
2024/01/30 07:26:50;;;;;;;27.58;10.52;;;-1.30;99.90;;;;;;4955253;29;20043;-56
2024/01/30 07:29:17;;;;;;;26.10;10.10;;;-1.30;99.90;;;;;;4955266;29;20490;-58
2024/01/30 07:31:44;;;;;;;28.98;11.00;;;-1.30;99.90;;;;;;4950574;29;20497;-56
2024/01/30 07:34:11;;;;;;;38.58;12.80;;;-1.30;99.90;;;;;;4954087;28;20051;-55
2024/01/30 07:36:38;;;;;;;44.85;15.85;;;-1.30;99.90;;;;;;4955285;29;20492;-53
2024/01/30 07:39:05;;;;;;;61.17;19.75;;;-1.30;99.90;;;;;;4954857;29;20055;-56
2024/01/30 07:41:32;;;;;;;42.05;15.88;;;-1.30;99.90;;;;;;4946956;29;20047;-56
2024/01/30 07:43:59;;;;;;;;;;;-1.20;99.90;;;;;;4954773;28;20051;-57
2024/01/30 07:46:26;;;;;;;40.83;13.52;;;-1.20;99.90;;;;;;4954474;29;19962;-55
2024/01/30 07:48:53;;;;;;;26.05;11.27;;;-1.20;99.90;;;;;;4951841;29;20051;-54
2024/01/30 07:51:21;;;;;;;23.02;10.32;;;-1.20;99.90;;;;;;4953128;29;20043;-56
2024/01/30 07:53:48;;;;;;;20.10;8.00;;;-1.10;99.90;;;;;;4954492;28;20094;-55
2024/01/30 07:56:15;;;;;;;19.42;7.15;;;-1.10;99.90;;;;;;4954133;29;20047;-58
2024/01/30 07:58:42;;;;;;;13.93;6.00;;;-1.10;99.90;;;;;;4947677;29;20352;-55
2024/01/30 08:01:09;;;;;;;13.98;6.32;;;-1.20;99.90;;;;;;4954039;29;20467;-55
2024/01/30 08:03:36;;;;;;;13.25;5.75;;;-1.20;99.90;;;;;;4954299;28;20058;-54
2024/01/30 08:06:03;;;;;;;9.15;4.25;;;-1.30;99.90;;;;;;4954169;29;20050;-53
2024/01/30 08:08:30;;;;;;;12.40;4.07;;;-1.30;99.90;;;;;;4946848;29;20457;-57
2024/01/30 08:10:57;;;;;;;7.88;3.78;;;-1.30;99.90;;;;;;4954123;29;20489;-58
2024/01/30 08:13:24;;;;;;;7.35;3.20;;;-1.30;99.90;;;;;;4953900;28;20043;-53
2024/01/30 08:15:51;;;;;;;;;;;-1.30;99.90;;;;;;4951924;29;20043;-57
2024/01/30 08:18:18;;;;;;;9.57;3.58;;;-1.20;99.90;;;;;;4954117;29;20022;-54
2024/01/30 08:20:45;;;;;;;8.48;3.70;;;-1.20;99.90;;;;;;4937119;29;20412;-57
2024/01/30 08:23:12;;;;;;;;;;;-1.20;99.90;;;;;;4954256;28;20051;-56
2024/01/30 08:25:39;;;;;;;20.52;8.63;;;-1.10;99.90;;;;;;4947558;29;20025;-55
2024/01/30 08:28:07;;;;;;;30.40;13.73;;;-0.90;99.90;;;;;;4953942;29;20070;-57
2024/01/30 08:30:34;;;;;;;27.90;13.80;;;-0.70;99.90;;;;;;4953793;29;20047;-56
2024/01/30 08:33:00;;;;;;;26.42;10.75;;;-0.50;99.90;;;;;;4953994;28;20042;-55
2024/01/30 08:35:27;;;;;;;22.70;10.65;;;-0.30;99.90;;;;;;4947465;29;20047;-57
2024/01/30 08:37:54;;;;;;;20.27;9.02;;;-0.10;99.90;;;;;;4953897;29;20047;-59
2024/01/30 08:40:21;;;;;;;15.50;8.63;;;0.10;99.90;;;;;;4953763;29;20496;-55
2024/01/30 08:42:48;;;;;;;17.85;8.60;;;0.30;99.90;;;;;;4953308;28;20043;-56
2024/01/30 08:45:15;;;;;;;11.73;6.80;;;0.40;99.90;;;;;;4950727;29;20062;-55
2024/01/30 08:47:42;;;;;;;18.25;6.93;;;0.60;99.90;;;;;;4953532;29;20066;-57
2024/01/30 08:50:09;;;;;;;;;;;0.70;99.90;;;;;;4953965;29;20489;-57
2024/01/30 08:52:36;;;;;;;13.73;7.32;;;0.70;99.90;;;;;;4952374;29;20394;-58
2024/01/30 08:55:04;;;;;;;15.45;7.78;;;0.60;99.90;;;;;;4948409;29;20047;-53
2024/01/30 08:57:31;;;;;;;20.67;7.82;;;0.50;99.90;;;;;;4953321;29;20485;-55
2024/01/30 08:59:58;;;;;;;17.17;7.05;;;0.50;99.90;;;;;;4953708;29;20051;-54
2024/01/30 09:02:25;;;;;;;17.02;7.80;;;0.50;99.90;;;;;;4949969;29;20439;-56
2024/01/30 09:04:52;;;;;;;18.58;8.02;;;0.60;99.90;;;;;;4953053;28;20382;-53
2024/01/30 09:07:19;;;;;;;17.55;7.85;;;0.70;99.90;;;;;;4953389;29;20046;-53
2024/01/30 09:09:46;;;;;;;16.38;8.55;;;0.90;99.90;;;;;;4953133;29;20039;-55
2024/01/30 09:12:14;;;;;;;12.18;6.78;;;1.00;99.90;;;;;;4935651;29;20059;-54
2024/01/30 09:14:41;;;;;;;19.33;7.00;;;1.20;99.90;;;;;;4952592;28;20377;-56
2024/01/30 09:17:08;;;;;;;20.65;8.23;;;1.40;99.90;;;;;;4953326;29;20098;-56
2024/01/30 09:19:35;;;;;;;;;;;1.50;99.90;;;;;;4953546;29;20079;-57
2024/01/30 09:22:03;;;;;;;15.13;7.28;;;1.70;99.90;;;;;;4947616;29;19926;-56
2024/01/30 09:24:30;;;;;;;;;;;1.80;99.90;;;;;;4952916;28;20059;-58
2024/01/30 09:26:57;;;;;;;8.88;4.82;;;2.00;99.90;;;;;;4953244;29;19926;-59
2024/01/30 09:29:24;;;;;;;9.38;4.57;;;2.10;99.90;;;;;;4949872;29;20047;-53
2024/01/30 09:31:50;;;;;;;8.05;4.60;;;2.40;99.90;;;;;;4953172;29;20043;-53
2024/01/30 09:34:17;;;;;;;13.18;4.93;;;2.60;99.90;;;;;;4952717;28;20528;-58
2024/01/30 09:36:44;;;;;;;10.77;5.75;;;2.80;99.90;;;;;;4952918;29;20035;-55
2024/01/30 09:39:11;;;;;;;9.20;5.13;;;2.80;99.90;;;;;;4948183;29;20059;-56
2024/01/30 09:42:05;;;;;;;10.23;5.20;;;2.90;99.90;;;;;;4952777;29;20047;-58
2024/01/30 09:44:34;;;;;;;9.05;4.57;;;2.90;99.90;;;;;;4952251;28;20062;-55
2024/01/30 09:47:03;;;;;;;11.40;4.65;;;2.90;99.90;;;;;;4953063;29;20082;-59
2024/01/30 09:49:33;;;;;;;8.45;4.93;;;3.00;99.90;;;;;;4951516;29;20063;-56
2024/01/30 09:52:00;;;;;;;9.02;4.68;;;3.10;99.90;;;;;;4952906;29;20128;-56
2024/01/30 09:54:31;;;;;;;7.18;3.92;;;3.20;99.90;;;;;;4952408;28;20102;-57
2024/01/30 09:57:02;;;;;;;6.30;3.60;;;3.20;99.90;;;;;;4945773;29;20102;-58
2024/01/30 09:59:29;;;;;;;6.30;3.45;;;3.30;99.90;;;;;;4952925;29;20082;-54
2024/01/30 10:01:57;;;;;;;7.28;3.70;;;3.40;99.90;;;;;;4952624;29;20134;-57
2024/01/30 10:04:24;;;;;;;6.65;3.63;;;3.60;99.90;;;;;;4948984;28;20044;-59
2024/01/30 10:06:51;;;;;;;8.38;3.35;;;3.70;99.90;;;;;;4952702;29;20094;-57
2024/01/30 10:09:19;;;;;;;6.35;3.08;;;3.70;99.90;;;;;;4952808;29;20555;-55
2024/01/30 10:11:45;;;;;;;7.20;3.38;;;3.80;99.90;;;;;;4952264;29;20039;-56
2024/01/30 10:14:12;;;;;;;5.53;2.95;;;4.00;99.90;;;;;;4948967;28;20130;-56
2024/01/30 10:16:39;;;;;;;7.57;2.92;;;4.10;99.90;;;;;;4951334;29;20118;-54
2024/01/30 10:19:06;;;;;;;6.97;3.15;;;4.30;99.90;;;;;;4952832;29;20043;-55
2024/01/30 10:21:33;;;;;;;7.97;3.35;;;4.40;99.90;;;;;;4952656;29;20063;-56
2024/01/30 10:24:00;;;;;;;9.65;3.70;;;4.50;99.90;;;;;;4948115;28;20054;-53
2024/01/30 10:26:26;;;;;;;9.10;3.78;;;4.60;99.90;;;;;;4949299;29;20058;-55
2024/01/30 10:28:53;;;;;;;6.60;3.22;;;4.70;99.90;;;;;;4952538;29;20512;-59
2024/01/30 10:31:20;;;;;;;7.10;3.70;;;4.90;99.90;;;;;;4952584;29;20039;-54
2024/01/30 10:33:47;;;;;;;8.15;3.20;;;5.00;99.90;;;;;;4944731;28;20448;-54
2024/01/30 10:36:17;;;;;;;;;;;5.10;99.90;;;;;;4952581;29;20051;-57
2024/01/30 10:38:50;;;;;;;6.30;2.60;;;5.20;99.90;;;;;;4952464;29;20311;-59
2024/01/30 10:41:26;;;;;;;6.25;3.47;;;5.30;99.90;;;;;;4950189;29;20059;-53
2024/01/30 10:44:05;;;;;;;7.15;3.55;;;5.40;99.90;;;;;;4944682;28;20404;-57
2024/01/30 10:46:34;;;;;;;8.88;4.00;;;5.40;99.90;;;;;;4952307;29;20102;-59
2024/01/30 10:49:02;;;;;;;8.88;3.70;;;5.40;99.90;;;;;;4954595;28;20129;-56
2024/01/30 10:51:31;;;;;;;11.52;4.47;;;5.50;99.90;;;;;;4953451;29;20129;-54
2024/01/30 10:53:58;;;;;;;8.77;4.40;;;5.60;99.90;;;;;;4955706;28;20063;-57
2024/01/30 10:56:25;;;;;;;;;;;5.80;99.90;;;;;;4955440;29;20079;-56
2024/01/30 10:58:53;;;;;;;8.75;3.47;;;5.80;99.90;;;;;;4953362;29;19976;-56
2024/01/30 11:01:22;;;;;;;8.02;3.30;;;5.80;99.90;;;;;;4955617;29;20070;-57
2024/01/30 11:03:52;;;;;;;10.35;3.10;;;5.80;99.90;;;;;;4955309;28;20051;-56
2024/01/30 11:06:22;;;;;;;4.65;3.08;;;5.90;99.90;;;;;;4955223;29;20055;-55
2024/01/30 11:09:09;;;;;;;9.65;3.30;;;5.90;99.90;;;;;;4948926;29;20051;-59
2024/01/30 11:12:00;;;;;;;6.40;3.73;;;6.00;99.90;;;;;;4938090;29;20535;-57
2024/01/30 11:14:29;;;;;;;6.32;3.00;;;6.20;99.90;;;;;;4954911;28;20484;-56
2024/01/30 11:16:59;;;;;;;7.55;3.35;;;6.30;99.90;;;;;;4947650;29;20043;-54
2024/01/30 11:19:27;;;;;;;7.70;3.25;;;6.40;99.90;;;;;;4955440;29;20504;-56
2024/01/30 11:21:56;;;;;;;8.88;2.67;;;6.50;99.90;;;;;;4955284;29;20244;-57
2024/01/30 11:24:24;;;;;;;8.10;2.88;;;6.60;99.90;;;;;;4951338;28;20047;-53
2024/01/30 11:27:02;;;;;;;9.35;2.72;;;6.80;99.90;;;;;;4954945;29;20519;-54
2024/01/30 11:29:30;;;;;;;5.43;2.35;;;6.80;99.90;;;;;;4955305;29;20419;-57
2024/01/30 11:31:57;;;;;;;;;;;6.90;99.90;;;;;;4952809;29;20593;-54
2024/01/30 11:34:25;;;;;;;8.70;2.03;;;6.90;99.90;;;;;;4954519;28;19923;-58
2024/01/30 11:37:00;;;;;;;;;;;7.00;99.90;;;;;;4955319;29;20043;-56
2024/01/30 11:39:29;;;;;;;11.55;2.17;;;7.10;99.90;;;;;;4954995;29;19928;-58
2024/01/30 11:41:56;;;;;;;3.85;1.80;;;7.20;99.90;;;;;;4951313;29;20043;-56
2024/01/30 11:44:23;;;;;;;12.95;3.03;;;7.20;99.90;;;;;;4954674;28;20039;-55
2024/01/30 11:46:51;;;;;;;10.70;2.90;;;7.20;99.90;;;;;;4954733;29;20150;-54
2024/01/30 11:49:19;;;;;;;6.47;2.60;;;7.30;99.90;;;;;;4954978;29;20126;-54
2024/01/30 11:51:48;;;;;;;5.93;2.28;;;7.40;99.90;;;;;;4946982;29;20513;-59
2024/01/30 11:54:18;;;;;;;4.10;2.35;;;7.50;99.90;;;;;;4954803;28;20555;-58
2024/01/30 11:56:45;;;;;;;11.27;3.05;;;7.50;99.90;;;;;;4954495;29;20130;-56
2024/01/30 11:59:11;;;;;;;8.13;2.50;;;7.60;99.90;;;;;;4954144;28;20048;-56
2024/01/30 12:01:38;;;;;;;10.05;2.92;;;7.70;99.90;;;;;;4948488;29;20122;-56
2024/01/30 12:04:09;;;;;;;14.65;2.83;;;7.80;99.90;;;;;;4954345;28;20059;-58
2024/01/30 12:06:38;;;;;;;8.80;2.65;;;7.90;99.90;;;;;;4936748;29;20043;-58
2024/01/30 12:09:08;;;;;;;3.50;2.42;;;8.00;99.90;;;;;;4953813;29;20072;-56
2024/01/30 12:11:45;;;;;;;9.93;2.65;;;8.10;99.90;;;;;;4954349;29;20046;-58
2024/01/30 12:14:12;;;;;;;10.25;2.25;;;8.20;99.90;;;;;;4954049;28;20046;-57
2024/01/30 12:16:39;;;;;;;9.68;2.83;;;8.20;99.90;;;;;;4954183;29;20035;-55
2024/01/30 12:19:06;;;;;;;10.13;2.75;;;8.30;99.90;;;;;;4949357;29;20035;-58
2024/01/30 12:21:34;;;;;;;11.68;3.92;;;8.40;99.90;;;;;;4954237;29;20035;-58
2024/01/30 12:24:01;;;;;;;14.05;5.38;;;8.40;99.90;;;;;;4946150;28;20502;-56
2024/01/30 12:26:28;;;;;;;8.38;3.10;;;8.40;99.90;;;;;;4934531;29;20058;-57
2024/01/30 12:28:55;;;;;;;9.40;2.75;;;8.50;99.90;;;;;;4953240;29;20039;-54
2024/01/30 12:31:26;;;;;;;;;;;8.50;99.90;;;;;;4954471;29;20047;-55
2024/01/30 12:33:55;;;;;;;5.72;2.17;;;8.60;99.90;;;;;;4953820;28;20331;-57
2024/01/30 12:36:22;;;;;;;4.45;2.20;;;8.70;99.90;;;;;;4946109;29;20051;-58
2024/01/30 12:38:50;;;;;;;7.30;2.00;;;8.70;99.90;;;;;;4953832;29;20090;-55
2024/01/30 12:41:17;;;;;;;6.93;1.85;;;8.80;99.90;;;;;;4954138;29;20103;-59
2024/01/30 12:43:44;;;;;;;3.63;2.00;;;8.80;99.90;;;;;;4952508;28;20096;-59
2024/01/30 12:46:11;;;;;;;4.55;2.22;;;8.90;99.90;;;;;;4953543;29;20118;-55
2024/01/30 12:48:38;;;;;;;5.65;3.30;;;8.90;99.90;;;;;;4953542;29;20444;-55
2024/01/30 12:51:05;;;;;;;6.97;2.78;;;9.00;99.90;;;;;;4940825;29;20047;-58